南京市, Jiangsu

2015年7月29日 05時43分 (GMT +0800)
Lukou | | Change Station
CLOSE
Current Station
機場
Location: Nanjing,
海拔: 118 ft
附近的氣象站

海拔 118 ft 31.93 °N, 118.90 °E | Updated 43 minutes ago

Clear
晴天
77 °F
感覺像 77 °F
0
風 變化 風 來自

今日
高 -- | 低 -- °F
--% 降水機率
昨天
高 -- | 低 -- °F
Precip. -- 英寸
5:17 AM 7:03 PM
盈凸月, 91% visible
氣壓 29.74 英寸
能見度 -9999.0 英里
多雲
露點 77 °F
濕度 100%
降雨量 0.00 英寸
積雪深度 不適用。
紫外線 不適用。
花粉 不適用。
空氣質素 不適用。
Flu Activity 不適用。
METAR ZSNJ 282100Z 00000MPS CAVOK 25/25 Q1007 NOSIG

More Conditions Fewer Conditions

氣壓 29.74 英寸
能見度 -9999.0 英里
多雲
露點 77 °F
濕度 100%
降雨量 0.00 英寸
積雪深度 不適用。
紫外線 不適用。
花粉 不適用。
空氣質素 不適用。
Flu Activity 不適用。
METAR ZSNJ 282100Z 00000MPS CAVOK 25/25 Q1007 NOSIG

More Conditions Fewer Conditions

10-Day Weather Forecast

×

Almanac

天文

Jul. 29, 2015 昇起 降落
實際時間
民用曙暮光
航海曙暮光
天文學微明
月亮
可見光的長度
白晝時間
Tomorrow will be .
, % of the Moon is Illuminated

今天之最

國家高溫 國家低溫

Community

WunderPhotos

Upload Photos

1,841,948 照片已上傳!

WunderBlogs® & News

Nearby

空氣質素

  空氣質素 空氣質素指數 污染物
Not available.

積雪量

Station 深度 海拔

地震活動

城市 距離 時間和日期
顯示的最小幅度是2.5。

沿海水溫

地點 溫度

Stations

附近的氣象站

氣象站位置 溫度 風寒指數 露點 濕度 Precip. 海拔 最近更新時間 類型